createdAt,value
2018-05-09T00:02:24.174Z,0.00
2018-05-09T00:03:04.177Z,0.00
2018-05-09T00:04:25.676Z,0.00
2018-05-09T00:05:03.677Z,0.00
2018-05-09T00:06:03.679Z,0.00
2018-05-09T00:07:24.676Z,0.00
2018-05-09T00:08:06.173Z,0.00
2018-05-09T00:09:04.176Z,0.00
2018-05-09T00:10:04.180Z,0.00
2018-05-09T00:11:04.176Z,0.00
2018-05-09T00:12:04.748Z,0.00
2018-05-09T00:13:04.676Z,0.00
2018-05-09T00:14:04.676Z,0.00
2018-05-09T00:15:25.162Z,0.00
2018-05-09T00:16:05.176Z,0.00
2018-05-09T00:17:05.175Z,0.00
2018-05-09T00:18:05.181Z,0.00
2018-05-09T00:19:11.176Z,0.00
2018-05-09T00:20:05.675Z,0.00
2018-05-09T00:21:04.917Z,0.00
2018-05-09T00:22:05.675Z,0.00
2018-05-09T00:23:05.675Z,0.00
2018-05-09T00:24:06.179Z,0.00
2018-05-09T00:25:06.179Z,0.00
2018-05-09T00:26:06.177Z,0.00
2018-05-09T00:27:06.175Z,0.00
2018-05-09T00:28:08.675Z,0.00
2018-05-09T00:29:27.683Z,0.00
2018-05-09T00:30:07.607Z,0.00
2018-05-09T00:31:08.675Z,0.00
2018-05-09T00:32:06.304Z,0.00
2018-05-09T00:33:07.186Z,0.00
2018-05-09T00:34:07.178Z,0.00
2018-05-09T00:35:07.179Z,0.00
2018-05-09T00:36:07.628Z,0.00
2018-05-09T00:37:09.675Z,0.00
2018-05-09T00:38:07.677Z,0.00
2018-05-09T00:39:07.683Z,0.00
2018-05-09T00:40:07.674Z,0.00
2018-05-09T00:41:08.175Z,0.00
2018-05-09T00:42:22.182Z,0.00
2018-05-09T00:43:08.174Z,0.00
2018-05-09T00:44:08.218Z,0.00
2018-05-09T00:45:08.677Z,0.00
2018-05-09T00:46:08.674Z,0.00
2018-05-09T00:48:40.053Z,0.00
2018-05-09T00:49:40.091Z,0.00
2018-05-09T00:50:40.089Z,0.00
2018-05-09T00:51:39.686Z,0.00
2018-05-09T00:52:39.785Z,0.00
2018-05-09T00:53:41.563Z,0.00
2018-05-09T00:54:40.566Z,0.00
2018-05-09T00:55:42.012Z,0.00
2018-05-09T00:56:41.060Z,0.00
2018-05-09T00:57:40.282Z,0.00
2018-05-09T00:58:41.055Z,0.00
2018-05-09T00:59:40.555Z,0.00
2018-05-09T01:02:12.813Z,0.00
2018-05-09T01:03:13.744Z,0.00
2018-05-09T01:04:12.817Z,0.00
2018-05-09T01:06:43.858Z,0.00
2018-05-09T01:07:44.582Z,0.00
2018-05-09T01:08:44.589Z,0.00
2018-05-09T01:09:45.084Z,0.00
2018-05-09T01:11:05.299Z,0.00
2018-05-09T01:11:45.086Z,0.00
2018-05-09T01:12:45.091Z,0.00
2018-05-09T01:15:37.842Z,0.00
2018-05-09T01:16:16.860Z,0.00
2018-05-09T01:17:16.849Z,0.00
2018-05-09T01:18:17.349Z,0.00
2018-05-09T01:19:17.354Z,0.00
2018-05-09T01:20:17.349Z,0.00
2018-05-09T01:21:17.347Z,0.00
2018-05-09T01:22:18.847Z,0.00
2018-05-09T01:23:17.070Z,0.00
2018-05-09T01:24:17.852Z,0.00
2018-05-09T01:25:17.850Z,0.00
2018-05-09T01:26:41.345Z,0.00
2018-05-09T01:27:45.349Z,0.00
2018-05-09T01:28:18.348Z,0.00
2018-05-09T01:29:18.346Z,0.00
2018-05-09T01:31:50.097Z,0.00
2018-05-09T01:32:50.104Z,0.00
2018-05-09T01:33:50.604Z,0.00
2018-05-09T01:34:50.610Z,0.00
2018-05-09T01:35:50.604Z,0.00
2018-05-09T01:36:50.604Z,0.00
2018-05-09T01:37:51.108Z,0.00
2018-05-09T01:38:51.104Z,0.00
2018-05-09T01:39:51.103Z,0.00
2018-05-09T01:40:51.104Z,0.00
2018-05-09T01:41:50.701Z,0.00
2018-05-09T01:42:51.604Z,0.00
2018-05-09T01:43:51.612Z,0.00
2018-05-09T01:44:51.608Z,0.00
2018-05-09T01:45:58.104Z,0.00
2018-05-09T01:46:51.327Z,0.00
2018-05-09T01:47:52.058Z,0.00
2018-05-09T01:48:52.114Z,0.00
2018-05-09T01:49:52.104Z,0.00
2018-05-09T01:50:54.603Z,0.00
2018-05-09T01:51:52.606Z,0.00
2018-05-09T01:52:51.951Z,0.00
2018-05-09T01:53:52.604Z,0.00
2018-05-09T01:54:52.223Z,0.00
2018-05-09T01:55:53.103Z,0.00
2018-05-09T01:56:54.073Z,0.00
2018-05-09T01:57:53.103Z,0.00
2018-05-09T02:01:56.324Z,0.00
2018-05-09T02:02:56.330Z,0.00
2018-05-09T02:03:55.807Z,0.00
2018-05-09T02:04:56.832Z,0.00
2018-05-09T02:06:17.831Z,0.00
2018-05-09T02:06:56.847Z,0.00
2018-05-09T02:07:56.830Z,0.00
2018-05-09T02:09:18.334Z,0.00
2018-05-09T02:09:57.331Z,0.00
2018-05-09T02:11:18.333Z,0.00
2018-05-09T02:11:57.326Z,0.00
2018-05-09T02:13:18.837Z,0.00
2018-05-09T02:13:57.832Z,0.00
2018-05-09T02:15:19.763Z,0.00
2018-05-09T02:15:57.836Z,0.00
2018-05-09T02:16:58.331Z,0.00
2018-05-09T02:18:19.338Z,0.00
2018-05-09T02:19:12.360Z,0.00
2018-05-09T02:19:58.330Z,0.00
2018-05-09T02:20:57.928Z,0.00
2018-05-09T02:22:21.836Z,0.00
2018-05-09T02:22:58.837Z,0.00
2018-05-09T02:23:58.883Z,0.00
2018-05-09T02:24:59.332Z,0.00
2018-05-09T02:25:59.341Z,0.00
2018-05-09T02:27:21.831Z,0.00
2018-05-09T02:27:59.349Z,0.00
2018-05-09T02:29:00.808Z,0.00
2018-05-09T02:29:59.831Z,0.00
2018-05-09T02:30:59.834Z,0.00
2018-05-09T02:31:59.836Z,0.00
2018-05-09T02:33:21.336Z,0.00
2018-05-09T02:34:00.331Z,0.00
2018-05-09T02:35:00.331Z,0.00
2018-05-09T02:36:00.336Z,0.00
2018-05-09T02:37:06.827Z,0.00
2018-05-09T02:38:00.830Z,0.00
2018-05-09T02:39:06.839Z,0.00
2018-05-09T02:40:00.828Z,0.00
2018-05-09T02:41:22.332Z,0.00
2018-05-09T02:43:32.778Z,0.00
2018-05-09T02:44:32.714Z,0.00
2018-05-09T02:45:32.716Z,0.00
2018-05-09T02:46:33.216Z,0.00
2018-05-09T02:47:36.215Z,0.00
2018-05-09T02:48:33.225Z,0.00
2018-05-09T02:49:33.220Z,0.00
2018-05-09T02:50:54.716Z,0.00
2018-05-09T02:51:54.718Z,0.00
2018-05-09T02:52:40.714Z,0.00
2018-05-09T02:53:34.715Z,0.00
2018-05-09T02:54:33.329Z,0.00
2018-05-09T02:55:34.217Z,0.00
2018-05-09T02:56:34.215Z,0.00
2018-05-09T02:57:34.217Z,0.00
2018-05-09T02:58:55.761Z,0.00
2018-05-09T02:59:34.713Z,0.00
2018-05-09T03:00:39.702Z,0.00
2018-05-09T03:01:34.714Z,0.00
2018-05-09T03:02:55.716Z,0.00
2018-05-09T03:03:35.215Z,0.00
2018-05-09T03:04:56.215Z,0.00
2018-05-09T03:05:35.215Z,0.00
2018-05-09T03:06:35.215Z,0.00
2018-05-09T03:09:06.253Z,0.00
2018-05-09T03:10:06.972Z,4.00
2018-05-09T03:11:06.978Z,4.00
2018-05-09T03:12:07.471Z,0.00
2018-05-09T03:13:13.471Z,0.00
2018-05-09T03:14:07.508Z,4.00
2018-05-09T03:15:07.471Z,0.00
2018-05-09T03:16:29.904Z,4.00
2018-05-09T03:17:07.975Z,4.00
2018-05-09T03:18:07.968Z,4.00
2018-05-09T03:19:07.971Z,4.00
2018-05-09T03:20:08.470Z,8.00
2018-05-09T03:21:07.705Z,8.00
2018-05-09T03:22:08.475Z,8.00
2018-05-09T03:23:29.480Z,8.00
2018-05-09T03:24:08.970Z,12.00
2018-05-09T03:25:14.971Z,12.00
2018-05-09T03:26:09.028Z,16.00
2018-05-09T03:27:08.970Z,16.00
2018-05-09T03:28:08.974Z,20.00
2018-05-09T03:29:09.474Z,20.00
2018-05-09T03:31:40.138Z,32.00
2018-05-09T03:32:40.257Z,36.00
2018-05-09T03:33:40.857Z,40.00
2018-05-09T03:34:40.454Z,40.00
2018-05-09T03:35:41.357Z,48.00
2018-05-09T03:36:41.355Z,56.00
2018-05-09T03:37:41.361Z,60.00
2018-05-09T03:38:41.856Z,64.00
2018-05-09T03:39:41.080Z,68.00
2018-05-09T03:40:41.858Z,76.00
2018-05-09T03:41:41.328Z,84.00
2018-05-09T03:44:40.612Z,108.00
2018-05-09T03:45:14.611Z,112.00
2018-05-09T03:46:13.616Z,120.00
2018-05-09T03:48:45.366Z,148.00
2018-05-09T03:49:46.305Z,156.00
2018-05-09T03:50:44.840Z,164.00
2018-05-09T03:51:47.872Z,176.00
2018-05-09T03:52:51.873Z,188.00
2018-05-09T03:53:45.869Z,196.00
2018-05-09T03:54:45.876Z,208.00
2018-05-09T03:55:46.375Z,220.00
2018-05-09T03:56:46.374Z,228.00
2018-05-09T03:57:46.374Z,240.00
2018-05-09T03:58:46.379Z,252.00
2018-05-09T03:59:46.875Z,268.00
2018-05-09T04:02:07.872Z,292.00
2018-05-09T04:02:46.872Z,304.00
2018-05-09T04:04:08.375Z,316.00
2018-05-09T04:04:47.373Z,328.00
2018-05-09T04:05:47.373Z,344.00
2018-05-09T04:06:47.373Z,356.00
2018-05-09T04:07:48.881Z,368.00
2018-05-09T04:08:47.872Z,380.00
2018-05-09T04:09:47.873Z,396.00
2018-05-09T04:10:49.873Z,408.00
2018-05-09T04:13:35.587Z,440.00
2018-05-09T04:14:19.654Z,452.00
2018-05-09T04:16:51.405Z,492.00
2018-05-09T04:17:52.845Z,500.00
2018-05-09T04:18:51.411Z,516.00
2018-05-09T04:19:51.027Z,528.00
2018-05-09T04:20:51.924Z,548.00
2018-05-09T04:21:51.909Z,560.00
2018-05-09T04:22:51.913Z,572.00
2018-05-09T04:23:52.412Z,584.00
2018-05-09T04:24:52.504Z,600.00
2018-05-09T04:25:51.757Z,612.00
2018-05-09T04:26:52.423Z,624.00
2018-05-09T04:27:51.897Z,640.00
2018-05-09T04:30:26.109Z,668.00
2018-05-09T04:31:45.183Z,684.00
2018-05-09T04:32:25.174Z,696.00
2018-05-09T04:33:26.676Z,712.00
2018-05-09T04:34:45.677Z,724.00
2018-05-09T04:35:24.917Z,740.00
2018-05-09T04:36:46.673Z,756.00
2018-05-09T04:37:46.195Z,764.00
2018-05-09T04:38:27.176Z,780.00
2018-05-09T04:39:25.176Z,796.00
2018-05-09T04:40:26.114Z,808.00
2018-05-09T04:41:46.676Z,816.00
2018-05-09T04:42:46.676Z,832.00
2018-05-09T04:43:25.676Z,844.00
2018-05-09T04:44:27.151Z,856.00
2018-05-09T04:45:28.183Z,868.00
2018-05-09T04:46:26.181Z,880.00
2018-05-09T04:47:25.531Z,888.00
2018-05-09T04:48:26.176Z,896.00
2018-05-09T04:49:26.683Z,912.00
2018-05-09T04:50:27.106Z,920.00
2018-05-09T04:51:26.674Z,932.00
2018-05-09T04:52:26.674Z,944.00
2018-05-09T04:53:41.182Z,952.00
2018-05-09T04:54:27.173Z,960.00
2018-05-09T04:55:27.299Z,972.00
2018-05-09T04:56:27.176Z,984.00
2018-05-09T04:57:52.176Z,992.00
2018-05-09T04:58:26.900Z,1000.00
2018-05-09T04:59:27.674Z,1008.00
2018-05-09T05:00:27.675Z,1016.00
2018-05-09T05:01:30.175Z,1028.00
2018-05-09T05:02:29.604Z,1036.00
2018-05-09T05:03:28.173Z,1044.00
2018-05-09T05:04:28.210Z,1052.00
2018-05-09T05:05:28.672Z,1064.00
2018-05-09T05:08:21.422Z,1088.00
2018-05-09T05:09:22.427Z,1096.00
2018-05-09T05:10:01.426Z,1108.00
2018-05-09T05:11:00.436Z,1116.00
2018-05-09T05:12:21.928Z,1120.00
2018-05-09T05:13:00.935Z,1128.00
2018-05-09T05:15:34.111Z,1148.00
2018-05-09T05:16:35.551Z,1152.00
2018-05-09T05:17:34.118Z,1156.00
2018-05-09T05:18:48.636Z,1164.00
2018-05-09T05:19:34.618Z,1168.00
2018-05-09T05:20:55.618Z,1176.00
2018-05-09T05:21:34.618Z,1184.00
2018-05-09T05:22:57.051Z,1188.00
2018-05-09T05:23:35.133Z,1196.00
2018-05-09T05:24:36.079Z,1204.00
2018-05-09T05:25:36.593Z,1208.00
2018-05-09T05:26:49.611Z,1216.00
2018-05-09T05:27:35.618Z,1224.00
2018-05-09T05:28:35.618Z,1228.00
2018-05-09T05:29:35.618Z,1236.00
2018-05-09T05:30:36.120Z,1244.00
2018-05-09T05:31:36.122Z,1252.00
2018-05-09T05:32:35.490Z,1260.00
2018-05-09T05:33:36.121Z,1268.00
2018-05-09T05:34:58.585Z,1272.00
2018-05-09T05:35:36.626Z,1280.00
2018-05-09T05:36:36.618Z,1284.00
2018-05-09T05:37:57.618Z,1292.00
2018-05-09T05:38:45.582Z,1300.00
2018-05-09T05:39:58.124Z,1308.00
2018-05-09T05:40:37.114Z,1320.00
2018-05-09T05:41:58.113Z,1324.00
2018-05-09T05:42:51.628Z,1348.00
2018-05-09T05:43:37.618Z,1344.00
2018-05-09T05:44:37.617Z,1348.00
2018-05-09T05:45:37.624Z,1356.00
2018-05-09T05:48:10.378Z,1368.00
2018-05-09T05:49:15.429Z,1376.00
2018-05-09T05:50:30.422Z,1384.00
2018-05-09T05:51:09.423Z,1392.00
2018-05-09T05:52:09.923Z,1400.00
2018-05-09T05:54:40.568Z,1428.00
2018-05-09T05:55:41.321Z,1440.00
2018-05-09T05:57:02.321Z,1448.00
2018-05-09T05:59:14.556Z,1456.00
2018-05-09T06:02:05.934Z,1472.00
2018-05-09T06:02:50.952Z,1484.00
2018-05-09T06:03:45.884Z,1488.00
2018-05-09T06:04:45.444Z,1496.00
2018-05-09T06:05:45.445Z,1508.00
2018-05-09T06:06:44.667Z,1520.00
2018-05-09T06:07:51.443Z,1488.00
2018-05-09T06:08:45.436Z,1480.00
2018-05-09T06:09:45.937Z,1520.00
2018-05-09T06:10:45.161Z,1500.00
2018-05-09T06:11:45.946Z,1328.00
2018-05-09T06:12:45.942Z,1512.00
2018-05-09T06:13:46.437Z,1532.00
2018-05-09T06:14:47.435Z,1552.00
2018-05-09T06:15:46.439Z,1560.00
2018-05-09T06:16:46.447Z,1564.00
2018-05-09T06:19:18.201Z,1600.00
2018-05-09T06:20:41.209Z,1616.00
2018-05-09T06:21:17.692Z,1620.00
2018-05-09T06:24:11.009Z,1632.00
2018-05-09T06:24:56.038Z,1644.00
2018-05-09T06:25:49.954Z,1664.00
2018-05-09T06:27:12.461Z,1720.00
2018-05-09T06:27:50.477Z,1768.00
2018-05-09T06:29:11.462Z,1792.00
2018-05-09T06:29:51.886Z,1780.00
2018-05-09T06:31:04.976Z,1696.00
2018-05-09T06:31:50.179Z,1440.00
2018-05-09T06:34:29.882Z,1692.00
2018-05-09T06:35:22.451Z,1728.00
2018-05-09T06:36:22.451Z,1360.00
2018-05-09T06:37:24.942Z,1380.00
2018-05-09T06:38:28.943Z,1460.00
2018-05-09T06:40:55.909Z,1984.00
2018-05-09T06:41:54.456Z,2040.00
2018-05-09T06:43:14.922Z,2352.00
2018-05-09T06:45:47.179Z,2572.00
2018-05-09T06:46:47.186Z,2700.00
2018-05-09T06:47:25.672Z,2976.00
2018-05-09T06:48:32.688Z,3400.00
2018-05-09T06:49:26.686Z,3728.00
2018-05-09T06:50:32.692Z,3880.00
2018-05-09T06:51:30.119Z,4276.00
2018-05-09T06:52:41.190Z,4224.00
2018-05-09T06:53:27.189Z,4128.00
2018-05-09T06:54:47.561Z,3920.00
2018-05-09T06:55:48.192Z,3660.00
2018-05-09T06:56:50.687Z,3780.00
2018-05-09T06:57:31.618Z,3340.00
2018-05-09T06:58:27.005Z,3212.00
2018-05-09T06:59:27.687Z,2920.00
2018-05-09T07:00:34.688Z,2792.00
2018-05-09T07:01:42.215Z,2744.00
2018-05-09T07:02:28.188Z,2656.00
2018-05-09T07:03:28.187Z,2620.00
2018-05-09T07:04:28.188Z,2564.00
2018-05-09T07:06:59.946Z,2400.00
2018-05-09T07:08:01.416Z,2004.00
2018-05-09T07:08:59.631Z,1508.00
2018-05-09T07:09:59.630Z,1448.00
2018-05-09T07:11:02.442Z,1480.00
2018-05-09T07:12:00.456Z,1536.00
2018-05-09T07:13:00.446Z,1684.00
2018-05-09T07:15:55.231Z,1908.00
2018-05-09T07:18:27.682Z,2280.00
2018-05-09T07:19:07.224Z,2132.00
2018-05-09T07:20:06.682Z,2340.00
2018-05-09T07:22:35.502Z,2260.00
2018-05-09T07:23:34.854Z,2256.00
2018-05-09T07:24:35.514Z,2324.00
2018-05-09T07:25:36.018Z,2384.00
2018-05-09T07:26:36.009Z,2452.00
2018-05-09T07:27:35.361Z,2576.00
2018-05-09T07:28:36.010Z,3172.00
2018-05-09T07:29:36.510Z,4020.00
2018-05-09T07:30:36.515Z,4452.00
2018-05-09T07:31:36.542Z,4220.00
2018-05-09T07:32:35.981Z,4752.00
2018-05-09T07:34:00.940Z,4392.00
2018-05-09T07:34:37.032Z,3780.00
2018-05-09T07:35:58.010Z,3284.00
2018-05-09T07:36:37.015Z,2944.00
2018-05-09T07:37:36.484Z,2828.00
2018-05-09T07:38:36.587Z,2812.00
2018-05-09T07:39:36.699Z,2808.00
2018-05-09T07:40:57.810Z,2816.00
2018-05-09T07:41:36.914Z,2828.00
2018-05-09T07:42:40.009Z,2832.00
2018-05-09T07:43:37.112Z,2836.00
2018-05-09T07:44:38.013Z,2836.00
2018-05-09T07:45:39.008Z,2848.00
2018-05-09T07:46:38.012Z,2868.00
2018-05-09T07:47:38.652Z,2872.00
2018-05-09T07:48:40.509Z,2872.00
2018-05-09T07:49:38.511Z,2884.00
2018-05-09T07:50:38.535Z,2888.00
2018-05-09T07:51:39.011Z,2904.00
2018-05-09T07:53:00.052Z,2900.00
2018-05-09T07:53:39.009Z,2908.00
2018-05-09T07:54:39.009Z,2904.00
2018-05-09T07:55:39.523Z,2924.00
2018-05-09T07:58:16.913Z,2944.00
2018-05-09T07:59:10.272Z,2952.00
2018-05-09T08:00:12.919Z,2956.00
2018-05-09T08:01:17.421Z,2960.00
2018-05-09T08:02:32.420Z,2972.00
2018-05-09T08:03:13.427Z,2988.00
2018-05-09T08:04:11.421Z,2988.00
2018-05-09T08:06:43.196Z,3012.00
2018-05-09T08:07:43.201Z,3020.00
2018-05-09T08:08:43.195Z,3016.00
2018-05-09T08:09:57.701Z,3032.00
2018-05-09T08:10:57.714Z,3032.00
2018-05-09T08:12:04.701Z,3028.00
2018-05-09T08:12:58.276Z,3044.00
2018-05-09T08:13:43.311Z,3064.00
2018-05-09T08:14:46.201Z,3060.00
2018-05-09T08:15:44.206Z,3064.00
2018-05-09T08:16:43.684Z,3092.00
2018-05-09T08:17:44.702Z,3088.00
2018-05-09T08:18:44.703Z,3080.00
2018-05-09T08:19:44.705Z,3084.00
2018-05-09T08:20:44.704Z,3096.00
2018-05-09T08:21:44.334Z,3096.00
2018-05-09T08:22:45.203Z,3104.00
2018-05-09T08:23:45.216Z,3112.00
2018-05-09T08:24:46.174Z,3120.00
2018-05-09T08:25:47.713Z,3112.00
2018-05-09T08:26:44.930Z,3128.00
2018-05-09T08:27:45.710Z,3140.00
2018-05-09T08:28:45.705Z,3152.00
2018-05-09T08:29:45.314Z,3168.00
2018-05-09T08:30:45.436Z,3196.00
2018-05-09T08:31:48.202Z,3192.00
2018-05-09T08:32:46.202Z,3208.00
2018-05-09T08:33:45.810Z,3220.00
2018-05-09T08:34:46.714Z,3228.00
2018-05-09T08:35:46.706Z,3244.00
2018-05-09T08:36:46.807Z,3244.00
2018-05-09T08:37:47.204Z,3244.00
2018-05-09T08:38:47.204Z,3272.00
2018-05-09T08:39:47.205Z,3272.00
2018-05-09T08:40:46.689Z,3284.00
2018-05-09T08:41:47.704Z,3300.00
2018-05-09T08:42:46.951Z,3328.00
2018-05-09T08:43:49.189Z,3344.00
2018-05-09T08:44:47.155Z,3320.00
2018-05-09T08:45:48.234Z,3332.00
2018-05-09T08:46:47.353Z,3344.00
2018-05-09T08:47:47.449Z,3348.00
2018-05-09T08:48:48.204Z,3368.00
2018-05-09T08:49:48.198Z,3388.00
2018-05-09T08:50:59.135Z,3380.00
2018-05-09T08:51:47.964Z,3400.00
2018-05-09T08:52:48.704Z,3384.00
2018-05-09T08:54:09.199Z,3388.00
2018-05-09T08:54:53.141Z,3384.00
2018-05-09T08:55:55.201Z,3424.00
2018-05-09T08:56:49.215Z,3432.00
2018-05-09T08:57:48.691Z,3416.00
2018-05-09T08:58:49.708Z,3444.00
2018-05-09T09:01:27.098Z,3520.00
2018-05-09T09:02:35.103Z,3576.00
2018-05-09T09:03:21.103Z,3580.00
2018-05-09T09:04:23.687Z,3624.00
2018-05-09T09:05:25.534Z,3668.00
2018-05-09T09:09:24.293Z,3760.00
2018-05-09T09:10:45.414Z,3744.00
2018-05-09T09:11:25.041Z,3864.00
2018-05-09T09:12:25.528Z,4200.00
2018-05-09T09:13:25.523Z,4060.00
2018-05-09T09:14:46.523Z,4108.00
2018-05-09T09:15:25.555Z,4404.00
2018-05-09T09:16:25.136Z,4840.00
2018-05-09T09:17:25.233Z,4700.00
2018-05-09T09:18:46.454Z,4520.00
2018-05-09T09:19:25.430Z,4520.00
2018-05-09T09:20:46.588Z,4756.00
2018-05-09T09:21:26.527Z,4852.00
2018-05-09T09:22:26.525Z,4448.00
2018-05-09T09:23:26.532Z,4344.00
2018-05-09T09:24:27.523Z,4168.00
2018-05-09T09:25:27.492Z,4328.00
2018-05-09T09:26:50.025Z,4508.00
2018-05-09T09:27:26.996Z,4432.00
2018-05-09T09:28:27.031Z,4536.00
2018-05-09T09:29:33.524Z,4424.00
2018-05-09T09:31:58.957Z,4236.00
2018-05-09T09:32:58.965Z,4108.00
2018-05-09T09:34:05.467Z,4072.00
2018-05-09T09:36:30.151Z,3972.00
2018-05-09T09:38:30.345Z,3984.00
2018-05-09T09:39:33.840Z,3952.00
2018-05-09T09:40:30.570Z,3944.00
2018-05-09T09:41:53.887Z,3928.00
2018-05-09T09:42:31.553Z,3932.00
2018-05-09T09:43:52.371Z,3904.00
2018-05-09T09:46:05.154Z,3904.00
2018-05-09T09:47:04.615Z,3928.00
2018-05-09T09:48:17.152Z,3932.00
2018-05-09T09:49:02.757Z,3944.00
2018-05-09T09:50:02.858Z,4000.00
2018-05-09T09:51:03.652Z,4040.00
2018-05-09T09:52:31.150Z,4024.00
2018-05-09T09:53:03.257Z,4044.00
2018-05-09T09:55:34.826Z,4116.00
2018-05-09T09:56:34.926Z,4084.00
2018-05-09T09:57:35.056Z,4084.00
2018-05-09T09:58:38.062Z,4064.00
2018-05-09T09:59:36.043Z,4056.00
2018-05-09T10:00:42.983Z,4076.00
2018-05-09T10:01:36.131Z,4052.00
2018-05-09T10:02:35.686Z,4120.00
2018-05-09T10:03:38.543Z,4152.00
2018-05-09T10:04:56.883Z,4204.00
2018-05-09T10:05:36.002Z,4260.00
2018-05-09T10:06:43.053Z,4252.00
2018-05-09T10:09:10.690Z,4352.00
2018-05-09T10:10:10.250Z,4380.00
2018-05-09T10:11:10.251Z,4380.00
2018-05-09T10:13:42.531Z,4336.00
2018-05-09T10:16:14.076Z,4320.00
2018-05-09T10:17:14.074Z,4316.00
2018-05-09T10:18:14.082Z,4376.00
2018-05-09T10:19:14.565Z,4528.00
2018-05-09T10:20:20.560Z,4520.00
2018-05-09T10:21:41.565Z,4524.00
2018-05-09T10:22:35.565Z,4700.00
2018-05-09T10:23:21.136Z,4764.00
2018-05-09T10:24:17.068Z,4736.00
2018-05-09T10:25:29.093Z,4576.00
2018-05-09T10:26:29.566Z,4628.00
2018-05-09T10:27:35.657Z,4664.00
2018-05-09T10:28:14.764Z,4744.00
2018-05-09T10:29:14.889Z,4804.00
2018-05-09T10:31:47.191Z,4944.00
2018-05-09T10:32:46.557Z,5004.00
2018-05-09T10:33:53.338Z,5072.00
2018-05-09T10:35:01.708Z,5068.00
2018-05-09T10:36:01.699Z,5108.00
2018-05-09T10:36:47.700Z,5292.00
2018-05-09T10:37:49.701Z,5648.00
2018-05-09T10:39:15.197Z,5728.00
2018-05-09T10:39:47.486Z,5844.00
2018-05-09T10:40:50.200Z,5716.00
2018-05-09T10:41:49.204Z,5560.00
2018-05-09T10:47:46.914Z,5724.00
2018-05-09T10:49:05.158Z,5900.00
2018-05-09T10:49:45.007Z,6248.00
2018-05-09T10:50:45.017Z,6416.00
2018-05-09T10:52:05.518Z,6516.00
2018-05-09T10:52:51.430Z,6504.00
2018-05-09T10:53:44.796Z,6360.00
2018-05-09T10:54:45.429Z,6096.00
2018-05-09T10:56:06.937Z,5880.00
2018-05-09T10:56:45.933Z,5748.00
2018-05-09T10:57:45.277Z,5752.00
2018-05-09T10:58:45.935Z,5852.00
2018-05-09T10:59:52.429Z,5968.00
2018-05-09T11:00:46.432Z,6072.00
2018-05-09T11:01:46.435Z,6124.00
2018-05-09T11:02:52.436Z,6268.00
2018-05-09T11:08:34.551Z,7988.00
2018-05-09T11:12:15.992Z,9424.00
2018-05-09T11:14:48.472Z,9024.00
2018-05-09T11:15:47.511Z,9136.00
2018-05-09T11:17:15.015Z,9044.00
2018-05-09T11:17:51.546Z,8620.00
2018-05-09T11:18:48.013Z,7884.00
2018-05-09T11:19:48.053Z,7472.00
2018-05-09T11:20:50.518Z,7268.00
2018-05-09T11:21:47.752Z,7092.00
2018-05-09T11:22:48.510Z,7132.00
2018-05-09T11:24:04.943Z,7136.00
2018-05-09T11:24:55.942Z,7260.00
2018-05-09T11:25:48.246Z,7776.00
2018-05-09T11:26:51.015Z,7964.00
2018-05-09T11:29:20.663Z,7864.00
2018-05-09T11:34:55.130Z,8140.00
2018-05-09T11:36:00.072Z,8004.00
2018-05-09T11:36:55.140Z,7892.00
2018-05-09T11:37:57.673Z,7808.00
2018-05-09T11:38:55.646Z,7252.00
2018-05-09T11:39:54.999Z,7376.00
2018-05-09T11:40:58.144Z,7908.00
2018-05-09T11:41:56.140Z,9412.00
2018-05-09T11:44:33.540Z,9824.00
2018-05-09T11:45:26.902Z,9664.00
2018-05-09T11:46:33.547Z,9388.00
2018-05-09T11:47:30.049Z,9548.00
2018-05-09T11:48:34.047Z,9648.00
2018-05-09T11:49:28.046Z,8996.00
2018-05-09T11:50:27.533Z,8676.00
2018-05-09T11:51:35.484Z,8728.00
2018-05-09T11:52:28.550Z,8680.00
2018-05-09T11:53:28.551Z,8480.00
2018-05-09T11:54:49.552Z,8508.00
2018-05-09T11:55:28.547Z,8644.00
2018-05-09T11:56:29.048Z,8964.00
2018-05-09T11:57:28.307Z,7592.00
2018-05-09T11:58:28.417Z,9776.00
2018-05-09T11:59:50.048Z,12920.00
2018-05-09T12:00:38.480Z,9328.00
2018-05-09T12:01:43.548Z,19136.00
2018-05-09T12:02:29.550Z,13352.00
2018-05-09T12:03:32.048Z,35520.00
2018-05-09T12:04:29.171Z,31520.00
2018-05-09T12:05:51.053Z,55136.00
2018-05-09T12:06:51.049Z,67296.00
2018-05-09T12:07:50.524Z,39712.00
2018-05-09T12:08:51.555Z,89440.00
2018-05-09T12:09:32.560Z,93536.00
2018-05-09T12:10:51.681Z,88640.00
2018-05-09T12:11:30.563Z,30432.00
2018-05-09T12:17:42.407Z,84864.00
2018-05-09T12:18:49.076Z,86080.00
2018-05-09T12:20:06.577Z,84736.00
2018-05-09T12:20:43.574Z,84640.00
2018-05-09T12:21:43.589Z,83968.00
2018-05-09T12:22:59.562Z,69504.00
2018-05-09T12:23:46.072Z,85888.00
2018-05-09T12:26:15.066Z,71520.00
2018-05-09T12:27:16.009Z,77920.00
2018-05-09T12:28:16.014Z,83520.00
2018-05-09T12:29:16.008Z,53984.00
2018-05-09T12:30:16.509Z,19520.00
2018-05-09T12:31:36.607Z,10608.00
2018-05-09T12:32:37.507Z,12468.00
2018-05-09T12:33:16.509Z,12612.00
2018-05-09T12:34:15.990Z,11328.00
2018-05-09T12:35:16.131Z,66528.00
2018-05-09T12:36:16.225Z,23136.00
2018-05-09T12:37:18.483Z,84992.00
2018-05-09T12:38:17.007Z,84192.00
2018-05-09T12:39:19.508Z,86528.00
2018-05-09T12:40:17.508Z,87136.00
2018-05-09T12:41:17.507Z,91616.00
2018-05-09T12:42:16.996Z,89248.00
2018-05-09T12:43:18.014Z,85024.00
2018-05-09T12:44:41.010Z,82528.00
2018-05-09T12:45:18.006Z,80672.00
2018-05-09T12:47:49.005Z,81696.00
2018-05-09T12:48:49.811Z,83104.00
2018-05-09T12:49:49.707Z,82880.00
2018-05-09T12:50:52.215Z,80160.00
2018-05-09T12:51:50.213Z,78688.00
2018-05-09T12:52:52.206Z,80832.00
2018-05-09T12:53:50.206Z,81952.00
2018-05-09T12:55:17.708Z,84160.00
2018-05-09T12:55:49.947Z,88096.00
2018-05-09T12:56:50.707Z,90592.00
2018-05-09T12:57:51.207Z,14880.00
2018-05-09T12:58:51.206Z,11924.00
2018-05-09T12:59:51.204Z,10212.00
2018-05-09T13:01:05.212Z,10412.00
2018-05-09T13:01:53.206Z,33184.00
2018-05-09T13:02:51.706Z,15208.00
2018-05-09T13:03:51.711Z,38176.00
2018-05-09T13:04:53.735Z,79328.00
2018-05-09T13:05:58.209Z,52992.00
2018-05-09T13:06:52.208Z,80608.00
2018-05-09T13:07:51.447Z,81984.00
2018-05-09T13:10:25.198Z,71936.00
2018-05-09T13:11:23.766Z,38400.00
2018-05-09T13:12:23.769Z,16100.00
2018-05-09T13:13:26.266Z,78464.00
2018-05-09T13:14:38.271Z,77728.00
2018-05-09T13:16:55.805Z,79776.00
2018-05-09T13:17:55.815Z,7768.00
2018-05-09T13:18:55.813Z,6620.00
2018-05-09T13:19:58.312Z,6124.00
2018-05-09T13:20:56.312Z,5412.00
2018-05-09T13:22:17.317Z,4672.00
2018-05-09T13:22:57.244Z,4696.00
2018-05-09T13:23:55.923Z,5144.00
2018-05-09T13:24:56.821Z,5500.00
2018-05-09T13:26:17.810Z,9484.00
2018-05-09T13:26:56.812Z,83840.00
2018-05-09T13:27:56.425Z,9280.00
2018-05-09T13:28:57.313Z,12748.00
2018-05-09T13:29:57.320Z,7960.00
2018-05-09T13:31:17.819Z,79712.00
2018-05-09T13:31:57.812Z,13380.00
2018-05-09T13:32:59.821Z,68928.00
2018-05-09T13:33:57.812Z,11912.00
2018-05-09T13:34:57.298Z,26048.00
2018-05-09T13:35:58.312Z,84256.00
2018-05-09T13:36:57.547Z,86304.00
2018-05-09T13:37:58.315Z,81888.00
2018-05-09T13:39:00.745Z,76992.00
2018-05-09T13:40:19.897Z,74016.00
2018-05-09T13:41:00.818Z,81216.00
2018-05-09T13:42:19.816Z,83808.00
2018-05-09T13:42:58.812Z,82560.00
2018-05-09T13:45:29.930Z,79936.00
2018-05-09T13:46:32.533Z,78304.00
2018-05-09T13:47:52.114Z,80416.00
2018-05-09T13:48:32.568Z,79552.00
2018-05-09T13:49:37.101Z,33760.00
2018-05-09T13:50:30.589Z,13084.00
2018-05-09T13:51:45.642Z,79936.00
2018-05-09T13:52:37.602Z,61056.00
2018-05-09T13:53:53.621Z,43072.00
2018-05-09T13:56:05.253Z,85344.00
2018-05-09T13:57:05.268Z,81376.00
2018-05-09T13:58:30.266Z,77216.00
2018-05-09T13:59:03.759Z,76064.00
2018-05-09T14:00:24.763Z,76320.00
2018-05-09T14:01:24.105Z,71776.00
2018-05-09T14:02:24.803Z,15488.00
2018-05-09T14:03:25.267Z,77632.00
2018-05-09T14:05:35.570Z,69088.00
2018-05-09T14:06:35.580Z,66048.00
2018-05-09T14:07:35.578Z,68704.00
2018-05-09T14:08:36.076Z,68576.00
2018-05-09T14:09:35.338Z,68928.00
2018-05-09T14:10:36.081Z,65888.00